Time;durP1;ratioP1;P1;durP2;ratioP2;P2;SDS_P1;SDS_P2;PMS_P1;PMS_P2;Temp;Humidity;BMP_temperature;BMP_pressure;BME280_temperature;BME280_humidity;BME280_pressure;Samples;Min_cycle;Max_cycle;Signal;HPM_P1;HPM_P2
2022/05/19 00:01:24;;;;;;;19.67;6.63;;;20.70;99.90;;;;;;5100048;28;20012;-74
2022/05/19 00:03:50;;;;;;;11.07;6.68;;;20.70;99.90;;;;;;5100225;28;20028;-76
2022/05/19 00:06:16;;;;;;;15.05;7.03;;;20.70;99.90;;;;;;5100078;28;20031;-75
2022/05/19 00:08:42;;;;;;;10.23;5.95;;;20.60;99.90;;;;;;5098729;28;20028;-75
2022/05/19 00:11:15;;;;;;;14.88;7.35;;;20.60;99.90;;;;;;5098746;28;20373;-74
2022/05/19 00:13:42;;;;;;;18.45;7.53;;;20.60;99.90;;;;;;5100080;28;20109;-76
2022/05/19 00:16:08;;;;;;;11.55;6.93;;;20.50;99.90;;;;;;5093377;28;20534;-77
2022/05/19 00:18:35;;;;;;;13.55;6.70;;;20.40;99.90;;;;;;5099906;28;20024;-77
2022/05/19 00:21:01;;;;;;;15.23;7.38;;;20.40;99.90;;;;;;5099660;28;20016;-77
2022/05/19 00:23:27;;;;;;;13.38;6.80;;;20.40;99.90;;;;;;5097910;28;20024;-78
2022/05/19 00:25:53;;;;;;;14.73;8.20;;;20.30;99.90;;;;;;5099597;28;20024;-77
2022/05/19 00:28:19;;;;;;;14.27;7.75;;;20.30;99.90;;;;;;5099806;28;20445;-76
2022/05/19 00:30:45;;;;;;;16.75;7.93;;;20.30;99.90;;;;;;5099313;28;20028;-76
2022/05/19 00:33:12;;;;;;;16.08;7.80;;;20.30;99.90;;;;;;5098216;28;20476;-77
2022/05/19 00:35:39;;;;;;;13.43;7.80;;;20.20;99.90;;;;;;5099847;28;20017;-77
2022/05/19 00:38:06;;;;;;;11.88;7.10;;;20.20;99.90;;;;;;5099288;28;20021;-77
2022/05/19 00:40:32;;;;;;;10.88;8.10;;;20.20;99.90;;;;;;5085450;28;20048;-76
2022/05/19 00:42:58;;;;;;;13.18;7.97;;;20.10;99.90;;;;;;5098116;28;20069;-76
2022/05/19 00:45:26;;;;;;;21.75;10.73;;;20.10;99.90;;;;;;5098999;28;20052;-76
2022/05/19 00:48:12;;;;;;;15.38;8.70;;;20.10;99.90;;;;;;5099640;28;20028;-77
2022/05/19 00:50:56;;;;;;;14.20;9.63;;;20.00;99.90;;;;;;5097865;28;20035;-76
2022/05/19 00:53:31;;;;;;;17.45;9.68;;;20.00;99.90;;;;;;5097551;28;20038;-77
2022/05/19 00:56:03;;;;;;;19.02;10.65;;;20.00;99.90;;;;;;5099503;28;20028;-77
2022/05/19 00:58:56;;;;;;;13.13;9.75;;;20.00;99.90;;;;;;5098959;28;20028;-76
2022/05/19 01:01:23;;;;;;;16.58;11.35;;;20.00;99.90;;;;;;5097898;28;20038;-77
2022/05/19 01:03:56;;;;;;;17.25;11.07;;;20.00;99.90;;;;;;5098009;28;20073;-76
2022/05/19 01:06:24;;;;;;;23.58;12.50;;;20.00;99.90;;;;;;5098602;28;20028;-76
2022/05/19 01:08:57;;;;;;;15.73;11.43;;;20.00;99.90;;;;;;5097624;28;20123;-76
2022/05/19 01:11:24;;;;;;;16.27;11.93;;;20.00;99.90;;;;;;5097590;28;20161;-77
2022/05/19 01:13:51;;;;;;;23.40;12.48;;;20.00;99.90;;;;;;5098787;28;20061;-76
2022/05/19 01:16:17;;;;;;;21.35;13.10;;;20.10;99.90;;;;;;5091427;28;20380;-76
2022/05/19 01:18:44;;;;;;;18.77;12.35;;;20.10;99.90;;;;;;5098720;28;20028;-76
2022/05/19 01:21:13;;;;;;;20.58;12.90;;;20.10;99.90;;;;;;5097465;28;20487;-76
2022/05/19 01:23:57;;;;;;;18.95;13.07;;;20.10;99.90;;;;;;5098576;28;20020;-76
2022/05/19 01:26:31;;;;;;;21.90;11.43;;;20.10;99.90;;;;;;5098557;28;20031;-77
2022/05/19 01:28:58;;;;;;;23.83;13.43;;;20.10;99.90;;;;;;5096881;28;20050;-76
2022/05/19 01:31:43;;;;;;;23.35;12.35;;;20.00;99.90;;;;;;5098645;28;20024;-75
2022/05/19 01:34:10;;;;;;;22.00;13.63;;;20.00;99.90;;;;;;5097766;28;20024;-75
2022/05/19 01:36:36;;;;;;;30.08;13.77;;;20.00;99.90;;;;;;5097559;28;20016;-75
2022/05/19 01:39:11;;;;;;;24.70;11.93;;;20.00;99.90;;;;;;5091841;28;20024;-76
2022/05/19 01:42:13;;;;;;;22.90;12.75;;;19.90;99.90;;;;;;5090752;28;20047;-76
2022/05/19 01:45:03;;;;;;;21.85;12.65;;;19.90;99.90;;;;;;5098422;28;20464;-75
2022/05/19 01:47:31;;;;;;;20.73;12.98;;;19.80;99.90;;;;;;5056802;28;20045;-75
2022/05/19 01:50:16;;;;;;;25.65;14.52;;;19.80;99.90;;;;;;5056642;28;20110;-76
2022/05/19 01:53:00;;;;;;;25.08;14.77;;;19.70;99.90;;;;;;5056213;28;20034;-76
2022/05/19 01:55:41;;;;;;;22.98;13.60;;;19.70;99.90;;;;;;5056335;28;20035;-75
2022/05/19 01:58:20;;;;;;;;;;;19.60;99.90;;;;;;5056592;28;20025;-76
2022/05/19 02:00:49;;;;;;;22.38;13.02;;;19.60;99.90;;;;;;5057782;28;19936;-76
2022/05/19 02:03:33;;;;;;;40.40;14.65;;;19.60;99.90;;;;;;5056457;28;20017;-76
2022/05/19 02:06:20;;;;;;;25.58;13.73;;;19.60;99.90;;;;;;5057697;28;20090;-76
2022/05/19 02:08:50;;;;;;;20.50;13.40;;;19.50;99.90;;;;;;5057598;28;20060;-76
2022/05/19 02:11:42;;;;;;;24.58;13.45;;;19.50;99.90;;;;;;5056260;28;20039;-76
2022/05/19 02:14:12;;;;;;;23.58;13.10;;;19.50;99.90;;;;;;5055867;28;20032;-77
2022/05/19 02:16:42;;;;;;;23.27;13.93;;;19.50;99.90;;;;;;5049340;28;20117;-76
2022/05/19 02:19:10;;;;;;;23.13;12.95;;;19.50;99.90;;;;;;5056144;28;20025;-76
2022/05/19 02:21:36;;;;;;;25.17;13.10;;;19.50;99.90;;;;;;5055924;28;20028;-76
2022/05/19 02:24:03;;;;;;;24.50;12.88;;;19.40;99.90;;;;;;5057050;28;20037;-76
2022/05/19 02:26:34;;;;;;;22.27;12.82;;;19.40;99.90;;;;;;5055818;28;20053;-77
2022/05/19 02:29:06;;;;;;;26.25;15.50;;;19.40;99.90;;;;;;5055718;28;20052;-76
2022/05/19 02:31:32;;;;;;;22.02;13.27;;;19.40;99.90;;;;;;5055870;28;20021;-76
2022/05/19 02:33:58;;;;;;;23.33;13.38;;;19.30;99.90;;;;;;5055632;28;20390;-76
2022/05/19 02:36:24;;;;;;;26.95;14.57;;;19.30;99.90;;;;;;5055812;28;20033;-76
2022/05/19 02:38:50;;;;;;;20.95;14.35;;;19.30;99.90;;;;;;5052562;28;20097;-76
2022/05/19 02:41:16;;;;;;;23.30;12.93;;;19.30;99.90;;;;;;5036930;28;20124;-76
2022/05/19 02:43:42;;;;;;;23.98;13.02;;;19.30;99.90;;;;;;5053749;28;20433;-76
2022/05/19 02:46:08;;;;;;;21.20;13.13;;;19.30;99.90;;;;;;5075789;28;20504;-76
2022/05/19 02:48:34;;;;;;;21.02;13.07;;;19.30;99.90;;;;;;5096090;28;20066;-77
2022/05/19 02:51:00;;;;;;;23.85;14.25;;;19.20;99.90;;;;;;5097240;28;20016;-76
2022/05/19 02:53:27;;;;;;;28.02;13.43;;;19.20;99.90;;;;;;5095502;28;20078;-76
2022/05/19 02:55:52;;;;;;;24.02;12.40;;;19.20;99.90;;;;;;5097307;28;20024;-76
2022/05/19 02:58:19;;;;;;;27.65;13.50;;;19.20;99.90;;;;;;5096983;28;20024;-77
2022/05/19 03:00:47;;;;;;;23.38;12.13;;;19.20;99.90;;;;;;5095720;28;20028;-76
2022/05/19 03:03:13;;;;;;;18.75;12.40;;;19.20;99.90;;;;;;5095728;28;20055;-77
2022/05/19 03:05:39;;;;;;;19.92;12.55;;;19.20;99.90;;;;;;5097094;28;20373;-76
2022/05/19 03:08:07;;;;;;;22.13;12.32;;;19.20;99.90;;;;;;5095592;28;20035;-75
2022/05/19 03:10:35;;;;;;;30.30;13.73;;;19.20;99.90;;;;;;5095762;28;20088;-76
2022/05/19 03:13:02;;;;;;;21.60;12.90;;;19.20;99.90;;;;;;5095893;28;20107;-76
2022/05/19 03:15:28;;;;;;;27.77;12.18;;;19.10;99.90;;;;;;5090885;28;20021;-74
2022/05/19 03:17:54;;;;;;;17.98;11.55;;;19.10;99.90;;;;;;5080945;28;20053;-75
2022/05/19 03:20:21;;;;;;;23.33;12.50;;;19.10;99.90;;;;;;5095694;28;20506;-76
2022/05/19 03:22:47;;;;;;;21.88;13.77;;;19.10;99.90;;;;;;5095181;28;20111;-75
2022/05/19 03:25:14;;;;;;;16.88;11.35;;;19.10;99.90;;;;;;5096912;28;20058;-77
2022/05/19 03:27:40;;;;;;;28.70;12.23;;;19.00;99.90;;;;;;5095407;28;20032;-77
2022/05/19 03:30:09;;;;;;;20.33;13.85;;;19.00;99.90;;;;;;5096710;28;20017;-77
2022/05/19 03:32:35;;;;;;;29.53;15.03;;;19.00;99.90;;;;;;5096648;28;20024;-77
2022/05/19 03:35:01;;;;;;;19.88;12.05;;;19.00;99.90;;;;;;5095783;28;20115;-74
2022/05/19 03:37:27;;;;;;;24.58;13.88;;;19.00;99.90;;;;;;5095552;28;20035;-76
2022/05/19 03:39:53;;;;;;;21.85;12.60;;;19.00;99.90;;;;;;5083524;28;20017;-75
2022/05/19 03:42:19;;;;;;;20.63;12.75;;;19.00;99.90;;;;;;5069912;28;20480;-76
2022/05/19 03:44:45;;;;;;;23.60;12.60;;;19.00;99.90;;;;;;5096630;28;20119;-76
2022/05/19 03:47:11;;;;;;;26.75;13.25;;;19.00;99.90;;;;;;5096452;28;20451;-75
2022/05/19 03:49:36;;;;;;;26.90;12.43;;;19.00;99.90;;;;;;5096763;28;20021;-76
2022/05/19 03:52:04;;;;;;;25.05;12.50;;;19.00;99.90;;;;;;5095353;28;20058;-76
2022/05/19 03:54:30;;;;;;;21.02;13.70;;;19.00;99.90;;;;;;5095351;28;20020;-75
2022/05/19 03:56:56;;;;;;;21.35;13.55;;;19.00;99.90;;;;;;5095489;28;20100;-77
2022/05/19 03:59:22;;;;;;;24.00;13.50;;;19.00;99.90;;;;;;5099259;28;20024;-76
2022/05/19 04:01:48;;;;;;;19.85;12.88;;;19.00;99.90;;;;;;5100378;28;20038;-75
2022/05/19 04:04:14;;;;;;;24.90;12.82;;;19.00;99.90;;;;;;5098854;28;20052;-75
2022/05/19 04:06:40;;;;;;;22.20;13.10;;;19.00;99.90;;;;;;5098750;28;20023;-74
2022/05/19 04:09:06;;;;;;;14.32;11.73;;;18.90;99.90;;;;;;5098681;28;20031;-75
2022/05/19 04:11:32;;;;;;;23.13;13.45;;;19.00;99.90;;;;;;5098587;28;20434;-76
2022/05/19 04:13:58;;;;;;;26.30;13.23;;;18.90;99.90;;;;;;5098824;28;20073;-76
2022/05/19 04:16:24;;;;;;;21.67;12.18;;;18.90;99.90;;;;;;5091941;28;20020;-76
2022/05/19 04:18:50;;;;;;;20.52;12.40;;;18.90;99.90;;;;;;5099913;28;20024;-76
2022/05/19 04:21:17;;;;;;;24.17;13.68;;;18.90;99.90;;;;;;5098279;28;20034;-74
2022/05/19 04:23:43;;;;;;;22.98;13.23;;;18.90;99.90;;;;;;5098464;28;20554;-74
2022/05/19 04:26:09;;;;;;;22.38;12.60;;;18.90;99.90;;;;;;5098256;28;20028;-75
2022/05/19 04:28:35;;;;;;;24.80;13.65;;;18.90;99.90;;;;;;5099688;28;20050;-75
2022/05/19 04:31:01;;;;;;;23.15;12.30;;;18.90;99.90;;;;;;5099318;28;20017;-75
2022/05/19 04:33:28;;;;;;;20.45;13.23;;;18.90;99.90;;;;;;5098209;28;20039;-75
2022/05/19 04:35:54;;;;;;;25.55;12.60;;;18.80;99.90;;;;;;5099595;28;20032;-76
2022/05/19 04:38:21;;;;;;;23.83;13.10;;;18.80;99.90;;;;;;5097436;28;20341;-76
2022/05/19 04:40:48;;;;;;;22.77;12.32;;;18.80;99.90;;;;;;5085389;28;20020;-74
2022/05/19 04:43:22;;;;;;;28.23;13.43;;;18.80;99.90;;;;;;5099560;28;20025;-75
2022/05/19 04:45:50;;;;;;;21.63;11.98;;;18.80;99.90;;;;;;5099168;28;20046;-75
2022/05/19 04:48:16;;;;;;;21.40;12.27;;;18.80;99.90;;;;;;5099488;28;20036;-74
2022/05/19 04:50:42;;;;;;;20.45;13.27;;;18.80;99.90;;;;;;5098213;28;20025;-76
2022/05/19 04:53:08;;;;;;;28.95;13.88;;;18.90;99.90;;;;;;5097552;28;20480;-76
2022/05/19 04:55:37;;;;;;;20.55;13.25;;;18.90;99.90;;;;;;5098174;28;20020;-76
2022/05/19 04:58:03;;;;;;;22.27;12.85;;;18.90;99.90;;;;;;5098943;28;20028;-75
2022/05/19 05:00:29;;;;;;;24.98;13.40;;;18.90;99.90;;;;;;5099375;28;20055;-76
2022/05/19 05:02:55;;;;;;;18.15;12.50;;;18.90;99.90;;;;;;5098809;28;20541;-76
2022/05/19 05:05:21;;;;;;;20.10;13.43;;;18.90;99.90;;;;;;5098938;28;20081;-76
2022/05/19 05:07:47;;;;;;;25.95;13.18;;;19.00;99.90;;;;;;5082785;28;20040;-75
2022/05/19 05:10:13;;;;;;;19.67;12.15;;;19.00;99.90;;;;;;5087608;28;20035;-75
2022/05/19 05:12:39;;;;;;;17.65;12.93;;;19.10;99.90;;;;;;5097666;28;20502;-75
2022/05/19 05:15:06;;;;;;;16.75;12.55;;;19.10;99.90;;;;;;5094382;28;20048;-76
2022/05/19 05:17:32;;;;;;;24.45;12.75;;;19.20;99.90;;;;;;5093894;28;20020;-75
2022/05/19 05:19:58;;;;;;;20.23;13.32;;;19.20;99.90;;;;;;5099060;28;20460;-76
2022/05/19 05:22:24;;;;;;;28.05;12.88;;;19.30;99.90;;;;;;5098133;28;20442;-76
2022/05/19 05:24:50;;;;;;;19.45;11.77;;;19.40;99.90;;;;;;5098572;28;20090;-76
2022/05/19 05:27:16;;;;;;;19.90;12.40;;;19.50;99.90;;;;;;5098457;28;20020;-76
2022/05/19 05:29:41;;;;;;;26.05;12.00;;;19.60;99.90;;;;;;5098481;28;20514;-75
2022/05/19 05:32:08;;;;;;;19.45;12.38;;;19.80;99.90;;;;;;5073190;28;20021;-75
2022/05/19 05:34:34;;;;;;;23.23;11.40;;;19.90;99.90;;;;;;5081853;28;20127;-75
2022/05/19 05:37:00;;;;;;;18.90;10.80;;;20.10;99.90;;;;;;5091854;28;20020;-76
2022/05/19 05:39:26;;;;;;;21.30;10.45;;;20.30;99.90;;;;;;5087510;28;20029;-75
2022/05/19 05:41:52;;;;;;;16.73;10.50;;;20.50;99.90;;;;;;5092974;28;20064;-76
2022/05/19 05:44:18;;;;;;;21.55;11.48;;;20.70;99.90;;;;;;5096998;28;20110;-75
2022/05/19 05:46:44;;;;;;;21.08;10.50;;;20.80;99.90;;;;;;5097902;28;20119;-75
2022/05/19 05:49:10;;;;;;;24.40;10.35;;;21.00;99.90;;;;;;5098237;28;20020;-76
2022/05/19 05:51:36;;;;;;;21.27;8.98;;;21.10;99.90;;;;;;5097784;28;20437;-75
2022/05/19 05:54:02;;;;;;;27.83;9.15;;;21.10;99.90;;;;;;5098124;28;20028;-76
2022/05/19 05:56:29;;;;;;;15.13;8.15;;;21.20;99.90;;;;;;5097847;28;20047;-76
2022/05/19 05:58:55;;;;;;;16.00;9.20;;;21.20;99.90;;;;;;5098066;28;20032;-77
2022/05/19 06:01:22;;;;;;;16.73;8.82;;;21.20;99.90;;;;;;5098102;28;20032;-76
2022/05/19 06:03:48;;;;;;;14.40;8.65;;;21.20;99.90;;;;;;5097994;28;20028;-78
2022/05/19 06:06:15;;;;;;;22.30;9.60;;;21.10;99.90;;;;;;5091363;28;20031;-76
2022/05/19 06:08:41;;;;;;;22.08;10.18;;;21.00;99.90;;;;;;5096600;28;20551;-76
2022/05/19 06:11:08;;;;;;;16.70;9.98;;;21.10;99.90;;;;;;5096548;28;20028;-76
2022/05/19 06:13:34;;;;;;;21.88;10.77;;;21.20;99.90;;;;;;5096417;28;20369;-75
2022/05/19 06:16:00;;;;;;;24.27;9.48;;;21.20;99.90;;;;;;5090342;28;20488;-77
2022/05/19 06:18:26;;;;;;;16.45;8.25;;;21.10;99.90;;;;;;5096678;28;20052;-77
2022/05/19 06:20:52;;;;;;;18.73;10.02;;;21.10;99.90;;;;;;5095907;28;20027;-76
2022/05/19 06:23:20;;;;;;;16.55;9.15;;;21.20;99.90;;;;;;5097269;28;20024;-78
2022/05/19 06:25:46;;;;;;;20.85;8.93;;;21.30;99.90;;;;;;5097362;28;20081;-76
2022/05/19 06:28:13;;;;;;;26.42;8.57;;;21.40;99.90;;;;;;5097859;28;20031;-77
2022/05/19 06:30:39;;;;;;;22.48;8.82;;;21.50;99.90;;;;;;5096018;28;20088;-77
2022/05/19 06:33:05;;;;;;;17.27;8.40;;;21.40;99.90;;;;;;5097475;28;20024;-77
2022/05/19 06:35:33;;;;;;;18.65;8.02;;;21.50;99.90;;;;;;5096043;28;20047;-77
2022/05/19 06:37:59;;;;;;;18.95;8.73;;;21.60;99.90;;;;;;5097184;28;20024;-77
2022/05/19 06:40:29;;;;;;;15.52;8.23;;;21.70;99.90;;;;;;5082527;28;20426;-77
2022/05/19 06:42:55;;;;;;;16.25;7.53;;;21.70;99.90;;;;;;5097568;28;20111;-74
2022/05/19 06:45:24;;;;;;;17.95;8.38;;;21.70;99.90;;;;;;5095472;28;20044;-76
2022/05/19 06:47:51;;;;;;;23.63;8.50;;;21.80;99.90;;;;;;5097097;28;20028;-76
2022/05/19 06:50:18;;;;;;;20.40;7.65;;;21.90;99.90;;;;;;5095729;28;20020;-77
2022/05/19 06:52:53;;;;;;;16.65;6.38;;;22.00;99.90;;;;;;5095695;28;20032;-76
2022/05/19 06:55:21;;;;;;;26.98;8.50;;;22.00;99.90;;;;;;5097309;28;20028;-75
2022/05/19 06:57:47;;;;;;;21.55;8.00;;;22.10;99.90;;;;;;5097159;28;20023;-76
2022/05/19 07:00:19;;;;;;;19.13;7.68;;;22.10;99.90;;;;;;5097136;28;20024;-74
2022/05/19 07:02:50;;;;;;;18.55;7.47;;;22.20;99.90;;;;;;5095996;28;20028;-75
2022/05/19 07:05:19;;;;;;;18.15;7.82;;;22.20;99.90;;;;;;5097190;28;20024;-78
2022/05/19 07:07:48;;;;;;;13.02;7.47;;;22.30;99.90;;;;;;5095543;28;20095;-75
2022/05/19 07:10:21;;;;;;;18.40;7.90;;;22.20;99.90;;;;;;5095796;28;20031;-76
2022/05/19 07:12:47;;;;;;;16.35;8.27;;;22.10;99.90;;;;;;5097220;28;20074;-77
2022/05/19 07:15:15;;;;;;;17.40;7.43;;;22.10;99.90;;;;;;5092996;28;20020;-75
2022/05/19 07:17:41;;;;;;;21.50;7.80;;;22.20;99.90;;;;;;5095256;28;20512;-77
2022/05/19 07:22:53;;;;;;;19.90;8.05;;;22.10;99.90;;;;;;5096935;28;20115;-77
2022/05/19 07:25:18;;;;;;;17.85;7.82;;;22.20;99.90;;;;;;5095492;28;20052;-76
2022/05/19 07:27:45;;;;;;;23.65;8.25;;;22.30;99.90;;;;;;5095890;28;20016;-77
2022/05/19 07:30:12;;;;;;;19.48;8.48;;;22.40;99.90;;;;;;5096721;28;20024;-77
2022/05/19 07:32:38;;;;;;;15.85;7.90;;;22.40;99.90;;;;;;5095722;28;20069;-75
2022/05/19 07:35:05;;;;;;;21.98;7.47;;;22.50;99.90;;;;;;5100735;28;20032;-75
2022/05/19 07:37:31;;;;;;;17.05;6.53;;;22.50;99.90;;;;;;5100793;28;20028;-75
2022/05/19 07:39:57;;;;;;;15.32;7.45;;;22.50;99.90;;;;;;5085648;28;20024;-75
2022/05/19 07:42:24;;;;;;;20.45;7.80;;;22.70;99.90;;;;;;5098573;28;20395;-75
2022/05/19 07:44:51;;;;;;;25.55;7.25;;;22.70;99.90;;;;;;5109854;28;20036;-75
2022/05/19 07:47:19;;;;;;;22.27;7.05;;;22.80;99.90;;;;;;5100316;28;20508;-76
2022/05/19 07:49:46;;;;;;;22.02;6.93;;;22.90;99.90;;;;;;5099343;28;20024;-76
2022/05/19 07:52:13;;;;;;;29.25;9.30;;;22.90;99.90;;;;;;5100261;28;20464;-75
2022/05/19 07:54:40;;;;;;;17.15;7.45;;;23.00;99.90;;;;;;5100409;28;20081;-75
2022/05/19 07:57:06;;;;;;;27.40;8.40;;;23.10;99.90;;;;;;5099318;28;20021;-75
2022/05/19 07:59:33;;;;;;;28.65;7.55;;;23.20;99.90;;;;;;5100144;28;20020;-76
2022/05/19 08:02:01;;;;;;;17.27;7.13;;;23.30;99.90;;;;;;5100291;28;20024;-73
2022/05/19 08:04:27;;;;;;;19.02;7.78;;;23.40;99.90;;;;;;5100323;28;20023;-74
2022/05/19 08:06:53;;;;;;;19.58;7.35;;;23.50;99.90;;;;;;5098908;28;20472;-74
2022/05/19 08:12:05;;;;;;;21.15;8.07;;;23.30;99.90;;;;;;5091332;28;20020;-75
2022/05/19 08:17:17;;;;;;;19.25;7.50;;;23.30;99.90;;;;;;5088467;28;20105;-74
2022/05/19 08:19:43;;;;;;;15.35;7.00;;;23.10;99.90;;;;;;5100197;28;20024;-74
2022/05/19 08:22:09;;;;;;;18.60;6.47;;;23.10;99.90;;;;;;5099658;28;20031;-75
2022/05/19 08:24:36;;;;;;;20.83;7.78;;;23.10;99.90;;;;;;5099853;28;20028;-74
2022/05/19 08:27:02;;;;;;;14.40;6.95;;;23.10;99.90;;;;;;5099649;28;20028;-76
2022/05/19 08:29:28;;;;;;;15.35;6.70;;;23.20;99.90;;;;;;5098331;28;20039;-73
2022/05/19 08:31:55;;;;;;;17.45;6.80;;;23.50;99.90;;;;;;5098535;28;20024;-73
2022/05/19 08:34:22;;;;;;;16.83;7.85;;;23.60;99.90;;;;;;5099710;28;20024;-73
2022/05/19 08:36:48;;;;;;;15.25;6.40;;;23.80;99.90;;;;;;5099324;28;20452;-75
2022/05/19 08:39:14;;;;;;;12.63;6.55;;;24.00;99.90;;;;;;5090394;28;20029;-74
2022/05/19 08:42:01;;;;;;;24.08;7.20;;;24.00;99.90;;;;;;5092357;28;20024;-74
2022/05/19 08:44:40;;;;;;;22.20;7.13;;;24.10;99.90;;;;;;5098969;28;20077;-75
2022/05/19 08:47:08;;;;;;;14.43;6.85;;;24.00;99.90;;;;;;5099143;28;20040;-74
2022/05/19 08:49:41;;;;;;;17.23;7.00;;;24.00;99.90;;;;;;5098047;28;20027;-74
2022/05/19 08:52:14;;;;;;;14.20;5.95;;;23.90;99.90;;;;;;5099149;28;20012;-75
2022/05/19 08:54:43;;;;;;;14.13;6.40;;;24.00;99.90;;;;;;5099199;28;20153;-74
2022/05/19 08:57:19;;;;;;;22.70;6.80;;;24.10;99.90;;;;;;5085384;28;20115;-74
2022/05/19 09:00:07;;;;;;;27.02;7.32;;;24.30;99.90;;;;;;5094216;28;20024;-74
2022/05/19 09:02:51;;;;;;;28.80;7.82;;;24.30;99.90;;;;;;5097914;28;20020;-74
2022/05/19 09:05:32;;;;;;;10.18;5.82;;;24.30;99.90;;;;;;5099130;28;20484;-74
2022/05/19 09:07:58;;;;;;;27.33;7.45;;;24.50;99.90;;;;;;5098651;28;20027;-74
2022/05/19 09:10:39;;;;;;;12.75;5.65;;;24.50;99.90;;;;;;5098977;28;20024;-74
2022/05/19 09:13:16;;;;;;;14.57;5.70;;;24.60;99.90;;;;;;5098869;28;20154;-75
2022/05/19 09:15:45;;;;;;;18.70;7.20;;;24.60;99.90;;;;;;5092019;28;20431;-74
2022/05/19 09:18:14;;;;;;;13.13;6.43;;;24.40;99.90;;;;;;5097603;28;20480;-73
2022/05/19 09:20:54;;;;;;;19.67;6.80;;;24.20;99.90;;;;;;5097380;28;20024;-74
2022/05/19 09:23:23;;;;;;;16.88;6.60;;;23.90;99.90;;;;;;5098819;28;20028;-73
2022/05/19 09:25:59;;;;;;;22.77;7.50;;;23.90;99.90;;;;;;5098530;28;20032;-74
2022/05/19 09:28:26;;;;;;;15.35;5.50;;;24.00;99.90;;;;;;5098742;28;20024;-73
2022/05/19 09:30:55;;;;;;;15.60;6.05;;;24.30;99.90;;;;;;5097308;28;20058;-73
2022/05/19 09:33:30;;;;;;;18.05;7.35;;;24.60;99.90;;;;;;5098752;28;20020;-74
2022/05/19 09:36:01;;;;;;;11.85;7.15;;;24.60;99.90;;;;;;5098367;28;20032;-73
2022/05/19 09:38:36;;;;;;;23.88;7.47;;;24.80;99.90;;;;;;5096054;28;20024;-74
2022/05/19 09:41:21;;;;;;;11.63;5.40;;;24.90;99.90;;;;;;5086207;28;20031;-74
2022/05/19 09:43:53;;;;;;;18.42;6.07;;;24.80;99.90;;;;;;5088549;28;20039;-73
2022/05/19 09:46:19;;;;;;;20.67;6.18;;;24.90;99.90;;;;;;5098314;28;20065;-73
2022/05/19 09:49:00;;;;;;;16.70;6.10;;;24.80;99.90;;;;;;5098165;28;20403;-73
2022/05/19 09:51:41;;;;;;;15.32;5.75;;;24.80;99.90;;;;;;5098049;28;20361;-73
2022/05/19 09:54:12;;;;;;;;;;;24.90;99.90;;;;;;5097301;28;20028;-73
2022/05/19 09:56:45;;;;;;;17.55;5.72;;;25.00;99.90;;;;;;5096223;28;20371;-73
2022/05/19 09:59:44;;;;;;;11.38;5.90;;;25.10;99.90;;;;;;5096736;28;20387;-73
2022/05/19 10:02:38;;;;;;;12.65;5.22;;;25.30;99.90;;;;;;5098027;28;20020;-74
2022/05/19 10:05:52;;;;;;;15.35;5.97;;;25.40;99.90;;;;;;5096828;28;20028;-73
2022/05/19 10:08:39;;;;;;;18.30;6.30;;;25.40;99.90;;;;;;5055526;28;20031;-74
2022/05/19 10:11:14;;;;;;;20.13;6.05;;;25.50;99.90;;;;;;5094974;28;20113;-74
2022/05/19 10:13:45;;;;;;;17.30;5.75;;;25.50;99.90;;;;;;5098002;28;20098;-74
2022/05/19 10:16:40;;;;;;;16.48;6.43;;;25.40;99.90;;;;;;5089995;28;20032;-74
2022/05/19 10:19:12;;;;;;;20.33;5.28;;;25.60;99.90;;;;;;5097638;28;20027;-74
2022/05/19 10:21:57;;;;;;;15.05;5.60;;;25.40;99.90;;;;;;5096391;28;20115;-74
2022/05/19 10:24:44;;;;;;;15.32;5.43;;;25.40;99.90;;;;;;5097586;28;20059;-73
2022/05/19 10:33:49;;;;;;;10.82;5.07;;;25.80;99.90;;;;;;5097812;28;20073;-73
2022/05/19 10:36:25;;;;;;;19.13;5.38;;;25.90;99.90;;;;;;5054938;28;20033;-73
2022/05/19 10:38:54;;;;;;;11.52;5.30;;;25.60;99.90;;;;;;5082974;28;20226;-73
2022/05/19 10:41:34;;;;;;;17.65;5.13;;;25.60;99.90;;;;;;5087414;28;20028;-73
2022/05/19 10:44:08;;;;;;;;;;;25.60;99.90;;;;;;5088848;28;20492;-72
2022/05/19 10:46:54;;;;;;;15.82;4.80;;;25.70;99.90;;;;;;5095715;28;19926;-73
2022/05/19 10:49:31;;;;;;;16.45;5.53;;;25.60;99.90;;;;;;5097492;28;20030;-73
2022/05/19 10:52:35;;;;;;;16.70;5.78;;;25.60;99.90;;;;;;5096881;28;20020;-73
2022/05/19 10:55:08;;;;;;;16.00;5.95;;;25.70;99.90;;;;;;5097161;28;20107;-72
2022/05/19 10:58:08;;;;;;;18.73;6.28;;;25.70;99.90;;;;;;5096001;28;20028;-72
2022/05/19 11:01:05;;;;;;;25.27;5.72;;;25.70;99.90;;;;;;5097356;28;20035;-73
2022/05/19 11:04:07;;;;;;;19.48;5.82;;;25.70;99.90;;;;;;5096341;28;20020;-73
2022/05/19 11:06:56;;;;;;;15.55;5.88;;;25.80;99.90;;;;;;5096753;28;20527;-73
2022/05/19 11:09:25;;;;;;;17.20;6.13;;;25.80;99.90;;;;;;5101365;28;20099;-73
2022/05/19 11:11:57;;;;;;;13.57;6.13;;;25.90;99.90;;;;;;5101485;28;20034;-73
2022/05/19 11:14:50;;;;;;;19.17;5.35;;;26.00;99.90;;;;;;5080972;28;20025;-72
2022/05/19 11:17:40;;;;;;;13.48;5.63;;;26.10;99.90;;;;;;5092512;28;20032;-72
2022/05/19 11:20:15;;;;;;;18.48;5.35;;;26.20;99.90;;;;;;5080073;28;20024;-71
2022/05/19 11:22:42;;;;;;;17.52;4.95;;;26.30;99.90;;;;;;5085987;28;20430;-72
2022/05/19 11:28:36;;;;;;;11.85;5.80;;;26.30;99.90;;;;;;5101241;28;20039;-71
2022/05/19 11:31:10;;;;;;;13.23;4.82;;;26.20;99.90;;;;;;5079928;28;20055;-72
2022/05/19 11:33:41;;;;;;;15.10;4.80;;;26.20;99.90;;;;;;5081603;28;20074;-72
2022/05/19 11:36:36;;;;;;;15.85;5.53;;;26.40;99.90;;;;;;5100649;28;20393;-71
2022/05/19 11:39:19;;;;;;;13.65;5.03;;;26.40;99.90;;;;;;5094534;28;20032;-73
2022/05/19 11:41:47;;;;;;;14.18;5.22;;;26.30;99.90;;;;;;5095870;28;20510;-73
2022/05/19 11:44:31;;;;;;;12.52;5.65;;;26.30;99.90;;;;;;5100621;28;20538;-73
2022/05/19 11:56:00;;;;;;;20.80;5.72;;;26.30;99.90;;;;;;5100622;28;20035;-74
2022/05/19 11:58:28;;;;;;;12.57;4.93;;;26.30;99.90;;;;;;5100569;28;20028;-75
2022/05/19 12:01:06;;;;;;;17.33;5.55;;;26.40;99.90;;;;;;5099276;28;20031;-75
2022/05/19 12:04:00;;;;;;;21.50;5.18;;;26.50;99.90;;;;;;5100549;28;20133;-74
2022/05/19 12:06:45;;;;;;;10.05;5.43;;;26.60;99.90;;;;;;5099845;28;20024;-75
2022/05/19 12:09:34;;;;;;;15.73;5.70;;;26.60;99.90;;;;;;5098921;28;20111;-74
2022/05/19 12:12:05;;;;;;;23.45;5.80;;;26.70;99.90;;;;;;5089644;28;20028;-73
2022/05/19 12:14:38;;;;;;;19.17;5.57;;;26.70;99.90;;;;;;5098855;28;20027;-74
2022/05/19 12:17:28;;;;;;;16.42;5.10;;;26.70;99.90;;;;;;5079412;28;20055;-75
2022/05/19 12:19:58;;;;;;;18.77;5.75;;;26.60;99.90;;;;;;5087542;28;20024;-75
2022/05/19 12:22:24;;;;;;;14.02;5.07;;;26.80;99.90;;;;;;5099501;28;20108;-75
2022/05/19 12:25:28;;;;;;;20.27;5.57;;;26.70;99.90;;;;;;5099894;28;20044;-73
2022/05/19 12:27:59;;;;;;;15.73;5.57;;;26.70;99.90;;;;;;5094090;28;20028;-73
2022/05/19 12:33:24;;;;;;;13.18;5.75;;;26.70;99.90;;;;;;5100036;28;20036;-74
2022/05/19 12:36:05;;;;;;;11.95;4.97;;;26.70;99.90;;;;;;5099227;28;20039;-73
2022/05/19 12:38:37;;;;;;;15.95;5.47;;;26.80;99.90;;;;;;5081373;28;20020;-74
2022/05/19 12:41:23;;;;;;;18.33;6.03;;;26.90;99.90;;;;;;5089092;28;20038;-74
2022/05/19 12:43:51;;;;;;;12.45;5.60;;;26.90;99.90;;;;;;5099265;28;20031;-75
2022/05/19 12:46:41;;;;;;;12.27;5.57;;;27.10;99.90;;;;;;5099346;28;20086;-73
2022/05/19 12:49:16;;;;;;;16.33;5.43;;;27.30;99.90;;;;;;5086867;28;20049;-74
2022/05/19 12:51:50;;;;;;;10.85;5.57;;;27.20;99.90;;;;;;5093516;28;20468;-74
2022/05/19 12:54:17;;;;;;;16.83;5.82;;;27.00;99.90;;;;;;5078723;28;20020;-73
2022/05/19 12:56:46;;;;;;;17.63;6.00;;;27.00;99.90;;;;;;5095329;28;20129;-73
2022/05/19 12:59:34;;;;;;;21.30;5.72;;;27.10;99.90;;;;;;5097778;28;20020;-74
2022/05/19 13:02:04;;;;;;;15.60;5.00;;;27.20;99.90;;;;;;5098892;28;20077;-74
2022/05/19 13:04:31;;;;;;;;;;;27.30;99.90;;;;;;5098836;28;20521;-74
2022/05/19 13:07:15;;;;;;;10.00;4.82;;;27.30;99.90;;;;;;5096903;28;19912;-73
2022/05/19 13:09:51;;;;;;;12.32;5.00;;;27.60;99.90;;;;;;5096944;28;20028;-74
2022/05/19 13:12:23;;;;;;;18.85;6.10;;;27.70;99.90;;;;;;5096587;28;20012;-74
2022/05/19 13:14:59;;;;;;;12.30;4.88;;;27.60;99.90;;;;;;5097885;28;20028;-75
2022/05/19 13:17:37;;;;;;;20.95;5.68;;;27.50;99.90;;;;;;5093022;28;20077;-73
2022/05/19 13:20:05;;;;;;;12.55;5.10;;;27.50;99.90;;;;;;5098928;28;20393;-73
2022/05/19 13:22:35;;;;;;;14.75;5.68;;;27.50;99.90;;;;;;5097080;28;20102;-73
2022/05/19 13:25:10;;;;;;;17.25;5.70;;;27.60;99.90;;;;;;5097708;28;20028;-73